Time;durP1;ratioP1;P1;durP2;ratioP2;P2;SDS_P1;SDS_P2;PMS_P1;PMS_P2;Temp;Humidity;BMP_temperature;BMP_pressure;BME280_temperature;BME280_humidity;BME280_pressure;Samples;Min_cycle;Max_cycle;Signal;HPM_P1;HPM_P2
2022/01/03 00:01:44;;;;;;;3.40;1.35;;;;;;;26.61;20.90;97583.88;5065411;28;20042;-77
2022/01/03 00:04:12;;;;;;;4.32;1.38;;;;;;;26.25;21.29;97594.97;5065237;28;20024;-77
2022/01/03 00:06:38;;;;;;;2.42;1.33;;;;;;;26.46;21.35;97596.16;5070371;28;20024;-77
2022/01/03 00:09:05;;;;;;;3.17;1.30;;;;;;;26.63;20.94;97605.91;5066626;28;20081;-77
2022/01/03 00:11:32;;;;;;;2.55;1.40;;;;;;;26.99;20.51;97596.84;5072196;28;20028;-77
2022/01/03 00:13:58;;;;;;;3.63;1.60;;;;;;;27.15;20.58;97579.66;5069072;28;20489;-77
2022/01/03 00:16:24;;;;;;;4.72;1.40;;;;;;;27.04;20.63;97584.97;5070341;28;20032;-77
2022/01/03 00:18:54;;;;;;;1.38;1.17;;;;;;;27.19;20.53;97586.72;5087232;28;20032;-77
2022/01/03 00:21:26;;;;;;;2.50;1.38;;;;;;;26.90;20.57;97586.34;5069839;28;20027;-77
2022/01/03 00:24:15;;;;;;;2.03;1.33;;;;;;;27.04;20.56;97582.16;5061319;28;20064;-77
2022/01/03 00:26:47;;;;;;;1.58;1.27;;;;;;;26.90;20.91;97594.81;5067810;28;20044;-77
2022/01/03 00:29:22;;;;;;;2.63;1.88;;;;;;;27.62;20.33;97585.72;5069349;28;20454;-76
2022/01/03 00:31:49;;;;;;;1.60;1.33;;;;;;;27.57;20.62;97596.81;5066140;28;20032;-77
2022/01/03 00:34:15;;;;;;;4.15;1.30;;;;;;;27.88;19.55;97577.69;5083852;28;20045;-77
2022/01/03 00:36:45;;;;;;;1.27;1.10;;;;;;;26.90;20.63;97588.38;5065245;28;20055;-77
2022/01/03 00:39:12;;;;;;;1.63;1.30;;;;;;;27.44;20.02;97594.16;5067464;28;20032;-77
2022/01/03 00:41:41;;;;;;;1.25;1.02;;;;;;;28.01;19.78;97583.97;5067931;28;20111;-77
2022/01/03 00:44:08;;;;;;;1.23;0.88;;;;;;;27.89;19.48;97580.03;5068900;28;20032;-76
2022/01/03 00:46:34;;;;;;;5.07;1.40;;;;;;;27.99;19.44;97583.66;5071457;28;20059;-77
2022/01/03 00:49:02;;;;;;;1.65;0.80;;;;;;;27.39;20.44;97575.03;5069457;28;20033;-77
2022/01/03 00:51:28;;;;;;;2.05;1.25;;;;;;;27.74;20.20;97576.31;5062022;28;20047;-77
2022/01/03 00:53:54;;;;;;;1.25;1.08;;;;;;;27.94;19.87;97578.63;5067549;28;20036;-77
2022/01/03 00:56:38;;;;;;;2.28;1.10;;;;;;;26.88;21.01;97580.41;5065709;28;20033;-77
2022/01/03 00:59:09;;;;;;;1.40;0.90;;;;;;;27.12;21.10;97564.47;5068507;28;20549;-77
2022/01/03 01:01:46;;;;;;;1.42;1.10;;;;;;;27.67;20.10;97545.59;5069154;28;20028;-77
2022/01/03 01:04:14;;;;;;;2.20;1.33;;;;;;;28.23;19.80;97550.69;5065074;28;20055;-77
2022/01/03 01:06:40;;;;;;;1.23;0.88;;;;;;;27.86;20.34;97549.19;5069939;28;20042;-78
2022/01/03 01:09:09;;;;;;;1.98;0.93;;;;;;;28.41;19.42;97547.78;5069998;28;20029;-78
2022/01/03 01:11:39;;;;;;;1.95;1.05;;;;;;;28.90;19.21;97543.81;5061874;28;20028;-77
2022/01/03 01:14:05;;;;;;;1.50;0.80;;;;;;;28.76;19.00;97542.50;5065884;28;20039;-78
2022/01/03 01:16:31;;;;;;;1.83;1.10;;;;;;;28.72;18.98;97534.19;5068766;28;20021;-77
2022/01/03 01:18:57;;;;;;;1.30;1.00;;;;;;;27.67;20.10;97533.53;5067915;28;20110;-78
2022/01/03 01:21:25;;;;;;;2.05;1.00;;;;;;;27.78;19.99;97542.28;5068896;28;20039;-78
2022/01/03 01:23:52;;;;;;;2.80;1.20;;;;;;;27.37;20.40;97546.53;5066035;28;20119;-77
2022/01/03 01:29:05;;;;;;;1.50;1.20;;;;;;;27.64;20.25;97540.09;5063860;28;20102;-78
2022/01/03 01:31:35;;;;;;;2.00;1.17;;;;;;;27.93;19.81;97543.22;5068083;28;20515;-78
2022/01/03 01:34:04;;;;;;;1.77;1.10;;;;;;;28.00;19.71;97534.44;5069288;28;20084;-78
2022/01/03 01:36:31;;;;;;;3.03;1.10;;;;;;;27.78;20.45;97533.81;5062894;28;20040;-77
2022/01/03 01:39:04;;;;;;;2.65;2.00;;;;;;;27.54;20.27;97530.84;5067402;28;20075;-77
2022/01/03 01:41:33;;;;;;;3.95;2.50;;;;;;;26.78;21.21;97525.28;5071003;28;20435;-77
2022/01/03 01:44:00;;;;;;;2.35;1.60;;;;;;;27.08;20.84;97518.75;5067550;28;20171;-77
2022/01/03 01:46:28;;;;;;;3.38;1.67;;;;;;;26.95;20.99;97518.13;5067411;28;20547;-77
2022/01/03 01:48:54;;;;;;;1.33;0.95;;;;;;;27.28;20.42;97507.03;5061934;28;20496;-78
2022/01/03 01:51:22;;;;;;;2.45;1.50;;;;;;;27.63;20.05;97497.03;5063768;28;20033;-78
2022/01/03 01:53:54;;;;;;;1.80;1.35;;;;;;;27.24;20.34;97512.81;5063276;28;20043;-78
2022/01/03 01:56:35;;;;;;;2.42;1.33;;;;;;;26.80;20.93;97505.09;5063514;28;20118;-78
2022/01/03 01:59:12;;;;;;;1.50;1.15;;;;;;;26.62;21.27;97494.53;5062791;28;20441;-77
2022/01/03 02:02:02;;;;;;;1.35;1.10;;;;;;;27.12;20.71;97496.06;5064317;28;20112;-78
2022/01/03 02:04:46;;;;;;;2.63;1.65;;;;;;;27.60;19.99;97489.50;5060741;28;20133;-77
2022/01/03 02:07:49;;;;;;;3.03;1.52;;;;;;;26.99;20.42;97489.78;5063977;28;20129;-78
2022/01/03 02:10:16;;;;;;;1.20;1.10;;;;;;;26.97;20.54;97486.66;5064289;28;20070;-78
2022/01/03 02:12:46;;;;;;;2.30;1.55;;;;;;;26.31;21.36;97486.16;5063998;28;20036;-77
2022/01/03 02:15:15;;;;;;;2.85;1.35;;;;;;;27.35;20.64;97482.13;5064829;28;20044;-78
2022/01/03 02:17:44;;;;;;;2.17;1.52;;;;;;;27.72;20.07;97491.38;5062764;28;20439;-78
2022/01/03 02:20:25;;;;;;;2.13;1.48;;;;;;;26.58;21.04;97500.31;5068081;28;20389;-78
2022/01/03 02:22:52;;;;;;;2.28;1.60;;;;;;;26.39;21.05;97500.72;5057388;28;20056;-77
2022/01/03 02:25:21;;;;;;;3.33;1.95;;;;;;;26.50;21.17;97506.72;5064595;28;20440;-78
2022/01/03 02:27:50;;;;;;;2.78;1.50;;;;;;;26.46;21.38;97504.03;5065104;28;20031;-78
2022/01/03 02:30:20;;;;;;;2.13;1.45;;;;;;;27.06;20.76;97492.28;5060190;28;20035;-77
2022/01/03 02:32:46;;;;;;;2.43;1.60;;;;;;;27.28;19.92;97490.13;5064134;28;20059;-79
2022/01/03 02:35:12;;;;;;;1.73;1.10;;;;;;;27.51;20.10;97481.06;5066738;28;20295;-77
2022/01/03 02:37:39;;;;;;;1.77;1.10;;;;;;;27.76;19.96;97479.91;5064492;28;20088;-78
2022/01/03 02:40:11;;;;;;;3.40;1.38;;;;;;;27.44;20.59;97463.66;5062490;28;20050;-78
2022/01/03 02:42:38;;;;;;;1.88;1.27;;;;;;;27.29;19.98;97469.91;5062094;28;20120;-77
2022/01/03 02:45:11;;;;;;;1.17;0.80;;;;;;;28.16;19.60;97471.19;5061233;28;22551;-78
2022/01/03 02:47:38;;;;;;;1.98;1.15;;;;;;;28.12;19.20;97457.25;5066781;28;20032;-77
2022/01/03 02:50:06;;;;;;;1.60;1.15;;;;;;;27.82;19.72;97444.94;5067816;28;20456;-77
2022/01/03 02:52:35;;;;;;;1.33;1.00;;;;;;;27.62;19.82;97452.34;5064326;28;20063;-77
2022/01/03 02:55:03;;;;;;;1.58;1.40;;;;;;;26.59;20.70;97448.38;5066369;28;20393;-77
2022/01/03 02:57:36;;;;;;;1.58;1.27;;;;;;;26.90;20.62;97447.50;5065112;28;20106;-77
2022/01/03 03:00:05;;;;;;;2.22;1.08;;;;;;;27.05;20.09;97452.06;5065194;28;20037;-77
2022/01/03 03:02:32;;;;;;;1.42;1.27;;;;;;;27.30;19.69;97446.13;5066037;28;20115;-78
2022/01/03 03:05:04;;;;;;;2.70;1.20;;;;;;;27.29;20.13;97444.53;5069669;28;20036;-77
2022/01/03 03:07:31;;;;;;;1.50;1.10;;;;;;;27.01;20.13;97445.00;5063598;28;20044;-77
2022/01/03 03:09:58;;;;;;;2.78;1.33;;;;;;;26.93;20.25;97441.75;5066863;28;20083;-77
2022/01/03 03:12:25;;;;;;;2.83;1.15;;;;;;;27.11;19.93;97446.59;5065452;28;20119;-77
2022/01/03 03:14:51;;;;;;;1.35;0.90;;;;;;;27.32;19.90;97451.28;5069895;28;20036;-77
2022/01/03 03:17:19;;;;;;;1.95;0.90;;;;;;;27.26;19.58;97450.31;5071965;28;20422;-77
2022/01/03 03:19:57;;;;;;;1.30;0.88;;;;;;;27.10;20.07;97447.81;5067974;28;20075;-77
2022/01/03 03:22:29;;;;;;;2.80;0.93;;;;;;;27.47;19.63;97445.81;5068763;28;20039;-77
2022/01/03 03:25:03;;;;;;;1.00;0.60;;;;;;;26.97;20.45;97433.91;5064952;28;20036;-77
2022/01/03 03:27:29;;;;;;;0.98;0.85;;;;;;;26.92;20.09;97434.53;5068932;28;20039;-77
2022/01/03 03:29:56;;;;;;;3.88;1.05;;;;;;;27.05;20.21;97432.31;5064345;28;20464;-77
2022/01/03 03:32:23;;;;;;;4.05;1.52;;;;;;;27.42;19.79;97428.25;5067358;28;20416;-77
2022/01/03 03:34:49;;;;;;;1.98;1.23;;;;;;;26.74;20.62;97418.38;5063791;28;20040;-77
2022/01/03 03:37:16;;;;;;;1.50;0.90;;;;;;;26.07;21.99;97414.72;5066665;28;20066;-77
2022/01/03 03:39:43;;;;;;;1.48;1.05;;;;;;;26.38;21.03;97429.56;5068341;28;20116;-77
2022/01/03 03:42:11;;;;;;;1.10;1.00;;;;;;;26.28;20.98;97425.16;5069913;28;20082;-77
2022/01/03 03:44:38;;;;;;;1.60;0.90;;;;;;;27.08;20.20;97425.75;5063946;28;20546;-77
2022/01/03 03:47:05;;;;;;;1.30;0.75;;;;;;;27.48;19.94;97414.31;5067531;28;20041;-77
2022/01/03 03:49:32;;;;;;;1.90;0.90;;;;;;;27.52;19.92;97416.97;5068807;28;20538;-77
2022/01/03 03:51:59;;;;;;;0.95;0.70;;;;;;;27.13;20.08;97415.91;5068708;28;20082;-78
2022/01/03 03:54:25;;;;;;;2.28;0.95;;;;;;;27.78;19.69;97420.97;5068887;28;20165;-78
2022/01/03 03:56:51;;;;;;;1.58;0.85;;;;;;;27.55;19.62;97416.81;5072469;28;20120;-77
2022/01/03 03:59:17;;;;;;;2.22;1.08;;;;;;;27.77;19.72;97422.25;5070201;28;20032;-77
2022/01/03 04:01:43;;;;;;;1.60;1.08;;;;;;;27.94;19.61;97417.78;5068738;28;20021;-77
2022/01/03 04:04:09;;;;;;;2.40;1.20;;;;;;;27.93;19.46;97416.22;5067812;28;20391;-77
2022/01/03 04:06:35;;;;;;;2.38;1.20;;;;;;;27.34;19.91;97410.09;5069432;28;20051;-77
2022/01/03 04:09:01;;;;;;;2.45;0.85;;;;;;;27.25;20.14;97418.56;5069166;28;20071;-78
2022/01/03 04:11:28;;;;;;;2.63;1.00;;;;;;;27.10;19.99;97420.44;5064535;28;20036;-77
2022/01/03 04:13:54;;;;;;;0.77;0.73;;;;;;;27.02;20.37;97419.19;5065405;28;20037;-77
2022/01/03 04:16:20;;;;;;;3.40;1.00;;;;;;;27.50;19.74;97413.84;5065409;28;20058;-77
2022/01/03 04:18:46;;;;;;;1.35;0.90;;;;;;;27.38;20.16;97418.41;5066479;28;20028;-77
2022/01/03 04:21:12;;;;;;;1.20;0.88;;;;;;;26.76;20.72;97426.38;5068518;28;20428;-77
2022/01/03 04:23:38;;;;;;;2.38;0.98;;;;;;;26.98;20.64;97414.97;5064069;28;20033;-77
2022/01/03 04:26:04;;;;;;;2.80;1.10;;;;;;;27.00;20.43;97418.09;5066812;28;20044;-77
2022/01/03 04:28:31;;;;;;;4.32;1.10;;;;;;;27.26;20.09;97413.69;5067589;28;20097;-77
2022/01/03 04:30:57;;;;;;;1.70;1.05;;;;;;;26.94;20.83;97417.94;5067729;28;20481;-77
2022/01/03 04:33:23;;;;;;;1.90;0.98;;;;;;;27.08;20.49;97408.84;5064918;28;20040;-78
2022/01/03 04:35:50;;;;;;;1.52;0.88;;;;;;;27.21;20.37;97403.06;5068680;28;20502;-77
2022/01/03 04:38:18;;;;;;;0.77;0.60;;;;;;;26.83;21.60;97391.47;5073191;28;20061;-77
2022/01/03 04:40:44;;;;;;;1.10;0.90;;;;;;;27.07;20.14;97392.44;5068572;28;20469;-77
2022/01/03 04:43:10;;;;;;;1.55;0.77;;;;;;;26.56;21.22;97390.19;5066774;28;20396;-77
2022/01/03 04:45:36;;;;;;;0.90;0.77;;;;;;;26.70;21.35;97383.16;5067256;28;20494;-77
2022/01/03 04:48:03;;;;;;;0.93;0.90;;;;;;;26.36;21.19;97389.06;5064710;28;20037;-77
2022/01/03 04:50:29;;;;;;;1.40;1.00;;;;;;;26.81;20.68;97391.19;5068127;28;20040;-77
2022/01/03 04:52:55;;;;;;;0.85;0.65;;;;;;;27.44;20.15;97384.72;5066568;28;20071;-77
2022/01/03 04:55:21;;;;;;;1.92;1.00;;;;;;;27.31;20.08;97396.13;5065687;28;20033;-77
2022/01/03 04:57:47;;;;;;;2.10;0.70;;;;;;;27.27;20.16;97387.84;5065087;28;20040;-77
2022/01/03 05:00:14;;;;;;;1.00;0.73;;;;;;;27.18;20.21;97392.72;5070477;28;20045;-77
2022/01/03 05:02:40;;;;;;;1.23;1.00;;;;;;;26.71;20.91;97385.50;5067082;28;20040;-77
2022/01/03 05:05:06;;;;;;;2.40;1.30;;;;;;;25.61;21.80;97394.06;5066261;28;20036;-77
2022/01/03 05:07:33;;;;;;;1.00;0.70;;;;;;;27.13;20.34;97384.91;5066688;28;20380;-77
2022/01/03 05:09:59;;;;;;;1.58;0.80;;;;;;;27.51;19.86;97373.09;5062412;28;20044;-77
2022/01/03 05:12:25;;;;;;;3.03;1.10;;;;;;;26.94;20.66;97374.88;5066778;28;20373;-77
2022/01/03 05:14:51;;;;;;;2.17;0.90;;;;;;;26.63;21.55;97372.19;5065293;28;20098;-77
2022/01/03 05:17:17;;;;;;;1.90;0.88;;;;;;;26.45;21.18;97366.56;5067741;28;20059;-77
2022/01/03 05:19:43;;;;;;;1.40;0.80;;;;;;;26.88;20.39;97362.69;5065724;28;20044;-77
2022/01/03 05:22:10;;;;;;;0.73;0.60;;;;;;;27.07;20.68;97350.16;5071647;28;20038;-77
2022/01/03 05:24:37;;;;;;;1.83;0.90;;;;;;;27.30;20.13;97352.31;5068980;28;20029;-77
2022/01/03 05:27:05;;;;;;;3.40;0.90;;;;;;;26.93;20.33;97350.81;5064698;28;20032;-77
2022/01/03 05:29:32;;;;;;;1.02;0.70;;;;;;;27.23;20.27;97332.91;5065210;28;20041;-77
2022/01/03 05:31:58;;;;;;;1.17;0.90;;;;;;;27.46;19.87;97331.44;5063808;28;20035;-77
2022/01/03 05:34:24;;;;;;;1.30;0.70;;;;;;;27.60;19.89;97340.03;5064420;28;20052;-77
2022/01/03 05:36:50;;;;;;;1.95;0.80;;;;;;;27.04;20.14;97339.81;5061688;28;20026;-77
2022/01/03 05:39:17;;;;;;;1.75;0.73;;;;;;;26.34;21.18;97333.25;5067816;28;20037;-78
2022/01/03 05:41:43;;;;;;;1.65;0.80;;;;;;;26.58;21.64;97331.38;5064647;28;20039;-77
2022/01/03 05:44:09;;;;;;;3.58;1.00;;;;;;;25.64;21.54;97347.38;5062495;28;20142;-77
2022/01/03 05:46:35;;;;;;;1.23;0.80;;;;;;;26.39;21.45;97332.63;5064138;28;20029;-77
2022/01/03 05:49:02;;;;;;;1.05;0.88;;;;;;;26.44;21.73;97343.25;5065081;28;20033;-77
2022/01/03 05:51:28;;;;;;;1.42;1.00;;;;;;;26.51;21.59;97337.31;5063527;28;20048;-77
2022/01/03 05:53:54;;;;;;;1.13;0.70;;;;;;;26.34;22.02;97343.72;5064120;28;20029;-77
2022/01/03 05:56:22;;;;;;;1.73;1.45;;;;;;;25.70;22.94;97346.31;5060631;28;20029;-77
2022/01/03 05:58:48;;;;;;;1.05;0.77;;;;;;;27.05;22.14;97341.41;5059225;28;20398;-77
2022/01/03 06:01:14;;;;;;;1.60;0.73;;;;;;;27.15;22.11;97331.66;5066798;28;20040;-77
2022/01/03 06:03:40;;;;;;;1.15;0.85;;;;;;;26.55;22.78;97342.78;5063832;28;20058;-78
2022/01/03 06:08:33;;;;;;;1.80;0.77;;;;;;;26.74;22.45;97339.53;5069290;28;20044;-78
2022/01/03 06:11:00;;;;;;;0.73;0.70;;;;;;;27.33;22.20;97340.84;5063080;28;20054;-77
2022/01/03 06:13:26;;;;;;;1.48;1.17;;;;;;;27.31;22.13;97340.53;5068862;28;20032;-77
2022/01/03 06:15:52;;;;;;;1.80;0.90;;;;;;;27.53;22.19;97328.28;5063266;28;20476;-78
2022/01/03 06:18:18;;;;;;;1.55;0.65;;;;;;;27.53;21.71;97334.72;5062624;28;20115;-77
2022/01/03 06:20:46;;;;;;;2.45;1.23;;;;;;;27.12;22.41;97327.00;5066154;28;20119;-77
2022/01/03 06:23:14;;;;;;;0.70;0.68;;;;;;;27.61;21.69;97316.19;5063126;28;20044;-77
2022/01/03 06:25:40;;;;;;;1.23;1.05;;;;;;;27.73;21.58;97311.59;5065962;28;20036;-77
2022/01/03 06:28:09;;;;;;;2.67;0.70;;;;;;;27.74;21.63;97324.44;5083007;28;20040;-78
2022/01/03 06:30:37;;;;;;;1.50;0.82;;;;;;;27.43;22.01;97327.53;5077408;28;20028;-78
2022/01/03 06:33:05;;;;;;;2.15;0.70;;;;;;;27.35;21.89;97317.84;5060373;28;20041;-78
2022/01/03 06:35:32;;;;;;;2.92;1.50;;;;;;;26.80;22.43;97316.38;5066234;28;20400;-77
2022/01/03 06:37:59;;;;;;;2.80;1.60;;;;;;;27.50;21.72;97327.19;5066389;28;20036;-78
2022/01/03 06:40:25;;;;;;;2.05;1.17;;;;;;;27.75;21.65;97326.03;5064243;28;20438;-77
2022/01/03 06:42:52;;;;;;;1.55;0.90;;;;;;;27.93;21.02;97328.75;5060551;28;20044;-77
2022/01/03 06:45:19;;;;;;;1.88;1.10;;;;;;;26.80;22.56;97319.19;5062126;28;20044;-78
2022/01/03 06:47:45;;;;;;;1.95;0.90;;;;;;;27.26;22.01;97334.75;5070175;28;20040;-79
2022/01/03 06:50:11;;;;;;;1.85;0.98;;;;;;;26.97;22.61;97340.94;5069564;28;20107;-78
2022/01/03 06:52:38;;;;;;;2.75;0.95;;;;;;;26.52;23.00;97340.91;5055842;28;20112;-78
2022/01/03 06:55:05;;;;;;;1.88;0.77;;;;;;;26.68;23.10;97355.47;5071317;28;20056;-78
2022/01/03 06:57:32;;;;;;;2.92;1.40;;;;;;;26.18;23.81;97355.25;5073107;28;20063;-78
2022/01/03 06:59:58;;;;;;;1.52;1.10;;;;;;;26.60;23.50;97359.06;5069123;28;20032;-78
2022/01/03 07:02:24;;;;;;;1.73;1.02;;;;;;;26.77;23.13;97357.53;5066541;28;20055;-78
2022/01/03 07:04:50;;;;;;;2.90;1.00;;;;;;;26.75;23.16;97362.84;5067636;28;20056;-78
2022/01/03 07:07:16;;;;;;;3.60;1.50;;;;;;;26.57;23.17;97360.00;5060303;28;20056;-78
2022/01/03 07:09:42;;;;;;;2.10;1.10;;;;;;;26.38;23.78;97361.22;5070782;28;20037;-78
2022/01/03 07:12:09;;;;;;;2.10;1.13;;;;;;;26.73;23.08;97351.25;5059975;28;20044;-78
2022/01/03 07:19:52;;;;;;;4.72;0.93;;;;;;;27.63;22.19;97343.94;5064436;28;20407;-78
2022/01/03 07:22:19;;;;;;;2.97;1.10;;;;;;;27.73;22.15;97346.22;5068635;28;20024;-78
2022/01/03 07:24:45;;;;;;;2.08;1.17;;;;;;;27.82;22.00;97339.78;5062715;28;20480;-77
2022/01/03 07:27:13;;;;;;;2.42;0.90;;;;;;;27.96;21.77;97341.88;5064482;28;20495;-78
2022/01/03 07:29:40;;;;;;;2.58;1.95;;;;;;;27.82;21.81;97349.00;5061019;28;20442;-78
2022/01/03 07:32:07;;;;;;;1.48;1.23;;;;;;;28.02;22.07;97342.84;5064643;28;20048;-78
2022/01/03 07:34:34;;;;;;;2.42;1.00;;;;;;;28.18;21.72;97339.59;5065262;28;20408;-78
2022/01/03 07:37:00;;;;;;;2.13;1.08;;;;;;;28.16;21.79;97349.81;5059244;28;20029;-78
2022/01/03 07:39:28;;;;;;;2.00;1.13;;;;;;;27.86;22.29;97344.00;5066076;28;20040;-78
2022/01/03 07:41:54;;;;;;;5.20;2.22;;;;;;;27.61;22.17;97352.84;5061853;28;20032;-78
2022/01/03 07:44:20;;;;;;;5.25;1.02;;;;;;;26.79;23.58;97357.06;5075731;28;20074;-78
2022/01/03 07:46:46;;;;;;;1.35;0.98;;;;;;;26.85;23.49;97355.97;5064210;28;20040;-78
2022/01/03 07:49:12;;;;;;;1.70;1.42;;;;;;;26.85;23.57;97369.25;5065519;28;20493;-78
2022/01/03 07:51:39;;;;;;;5.07;1.90;;;;;;;25.04;25.79;97384.16;5069897;28;20036;-79
2022/01/03 07:54:05;;;;;;;2.47;1.20;;;;;;;25.19;25.21;97382.41;5067030;28;20068;-77
2022/01/03 07:56:32;;;;;;;2.53;1.10;;;;;;;25.89;24.71;97406.22;5069287;28;20439;-77
2022/01/03 07:58:59;;;;;;;2.17;1.45;;;;;;;26.01;24.72;97399.72;5067639;28;20513;-78
2022/01/03 08:01:25;;;;;;;2.83;1.30;;;;;;;26.44;24.12;97405.16;5064863;28;20461;-78
2022/01/03 08:03:52;;;;;;;2.13;1.23;;;;;;;26.30;24.17;97396.56;5071363;28;20066;-77
2022/01/03 08:06:20;;;;;;;1.23;0.80;;;;;;;26.78;23.65;97395.72;5072325;28;20102;-77
2022/01/03 08:08:46;;;;;;;2.15;1.20;;;;;;;26.04;24.42;97399.56;5070842;28;20070;-77
2022/01/03 08:11:12;;;;;;;2.40;1.45;;;;;;;24.41;26.64;97398.41;5087008;28;20036;-78
2022/01/03 08:13:38;;;;;;;4.18;1.60;;;;;;;25.48;25.47;97404.63;5062932;28;20040;-78
2022/01/03 08:16:04;;;;;;;3.05;1.38;;;;;;;26.52;24.05;97391.59;5081442;28;20071;-78
2022/01/03 08:18:32;;;;;;;1.65;1.00;;;;;;;24.82;25.19;97402.25;5071486;28;20032;-78
2022/01/03 08:20:58;;;;;;;1.10;0.75;;;;;;;26.00;24.57;97407.38;5078369;28;20086;-78
2022/01/03 08:23:24;;;;;;;2.90;0.90;;;;;;;24.60;26.20;97402.97;5081252;28;20460;-78
2022/01/03 08:25:50;;;;;;;2.67;0.80;;;;;;;24.93;25.49;97405.44;5066099;28;20087;-78
2022/01/03 08:28:17;;;;;;;1.33;1.00;;;;;;;25.29;25.37;97400.91;5069096;28;20032;-78
2022/01/03 08:30:43;;;;;;;2.85;1.08;;;;;;;25.35;24.44;97399.06;5063696;28;20033;-77
2022/01/03 08:33:09;;;;;;;1.80;1.10;;;;;;;25.62;24.69;97401.28;5067665;28;20054;-78
2022/01/03 08:35:35;;;;;;;1.58;1.05;;;;;;;25.28;24.75;97395.72;5069093;28;20103;-78
2022/01/03 08:38:04;;;;;;;2.33;1.05;;;;;;;25.79;24.01;97399.03;5070732;28;20388;-77
2022/01/03 08:40:31;;;;;;;1.30;0.80;;;;;;;24.38;25.47;97399.34;5064307;28;20492;-78
2022/01/03 08:42:58;;;;;;;1.40;0.75;;;;;;;23.97;26.99;97403.06;5066186;28;20063;-78
2022/01/03 08:45:25;;;;;;;1.23;0.60;;;;;;;23.76;27.13;97402.94;5064402;28;20070;-78
2022/01/03 08:47:51;;;;;;;3.78;0.82;;;;;;;23.65;26.67;97408.88;5059775;28;20037;-78
2022/01/03 08:50:18;;;;;;;1.98;0.68;;;;;;;22.48;28.37;97421.78;5060520;28;20439;-78
2022/01/03 08:52:45;;;;;;;1.15;0.80;;;;;;;22.91;27.63;97415.84;5060484;28;20047;-78
2022/01/03 08:55:11;;;;;;;1.20;0.65;;;;;;;22.92;27.59;97412.59;5069709;28;20442;-78
2022/01/03 08:57:38;;;;;;;4.50;0.80;;;;;;;21.84;28.76;97414.94;5066055;28;20395;-78
2022/01/03 09:00:05;;;;;;;2.42;0.73;;;;;;;22.19;28.39;97395.75;5061872;28;20032;-78
2022/01/03 09:02:31;;;;;;;3.47;0.70;;;;;;;21.94;29.37;97413.13;5068414;28;20024;-82
2022/01/03 09:04:58;;;;;;;1.85;1.10;;;;;;;22.51;28.84;97423.69;5063618;28;20024;-78
2022/01/03 09:07:24;;;;;;;2.83;0.80;;;;;;;23.68;26.69;97418.41;5066855;28;20032;-78
2022/01/03 09:09:50;;;;;;;3.13;0.85;;;;;;;22.96;27.05;97430.13;5066780;28;20032;-78
2022/01/03 09:12:16;;;;;;;2.42;0.90;;;;;;;23.52;26.34;97413.72;5067406;28;20036;-78
2022/01/03 09:14:43;;;;;;;1.40;0.70;;;;;;;23.89;26.08;97418.56;5068822;28;20499;-77
2022/01/03 09:17:09;;;;;;;1.13;0.80;;;;;;;24.18;25.87;97429.66;5068242;28;20032;-78
2022/01/03 09:19:35;;;;;;;0.80;0.70;;;;;;;24.73;24.69;97417.75;5065774;28;20399;-78
2022/01/03 09:22:12;;;;;;;2.10;1.08;;;;;;;24.47;24.90;97424.69;5068707;28;20036;-78
2022/01/03 09:24:51;;;;;;;1.25;0.60;;;;;;;22.80;27.49;97402.13;5074147;28;20391;-78
2022/01/03 09:30:05;;;;;;;2.28;0.70;;;;;;;24.10;25.80;97391.88;5070569;28;20452;-78
2022/01/03 09:32:32;;;;;;;2.47;0.85;;;;;;;23.68;26.52;97405.19;5071542;28;20052;-78
2022/01/03 09:34:58;;;;;;;0.88;0.70;;;;;;;23.93;25.89;97396.78;5073304;28;20175;-78
2022/01/03 09:37:25;;;;;;;1.65;0.73;;;;;;;24.53;25.11;97394.00;5073931;28;20081;-78
2022/01/03 09:39:54;;;;;;;1.50;0.60;;;;;;;25.74;24.05;97391.19;5073632;28;20044;-78
2022/01/03 09:42:23;;;;;;;1.50;0.90;;;;;;;24.99;24.45;97387.59;5067102;28;20477;-78
2022/01/03 09:44:51;;;;;;;1.10;0.73;;;;;;;24.09;25.92;97375.47;5063781;28;20036;-78
2022/01/03 09:47:20;;;;;;;1.02;0.63;;;;;;;23.43;27.16;97385.56;5062395;28;20044;-78
2022/01/03 09:49:47;;;;;;;1.10;0.70;;;;;;;23.15;26.80;97394.78;5061869;28;20033;-78
2022/01/03 09:52:15;;;;;;;2.60;0.75;;;;;;;23.94;26.04;97398.34;5064833;28;20025;-78
2022/01/03 09:54:42;;;;;;;0.95;0.70;;;;;;;23.88;26.01;97386.13;5070310;28;20112;-78
2022/01/03 09:57:09;;;;;;;1.52;0.65;;;;;;;22.96;27.04;97390.91;5068647;28;20114;-77
2022/01/03 09:59:37;;;;;;;0.90;0.70;;;;;;;22.93;27.75;97380.59;5055256;28;20043;-78
2022/01/03 10:02:06;;;;;;;1.95;1.00;;;;;;;23.38;27.16;97362.91;5063839;28;20480;-77
2022/01/03 10:04:33;;;;;;;1.48;0.50;;;;;;;23.80;26.74;97381.22;5066822;28;20039;-77
2022/01/03 10:06:59;;;;;;;1.38;0.60;;;;;;;23.93;26.34;97374.34;5057887;28;20047;-78
2022/01/03 10:09:26;;;;;;;1.45;0.65;;;;;;;24.07;25.86;97383.56;5064248;28;20039;-77
2022/01/03 10:11:52;;;;;;;1.85;0.50;;;;;;;24.24;26.01;97387.81;5072848;28;20041;-78
2022/01/03 10:14:18;;;;;;;0.85;0.50;;;;;;;25.63;23.90;97394.41;5059048;28;20579;-78
2022/01/03 10:16:46;;;;;;;0.95;0.60;;;;;;;24.64;25.67;97389.59;5056696;28;20072;-78
2022/01/03 10:19:13;;;;;;;1.02;0.50;;;;;;;24.39;25.60;97391.69;5063233;28;20024;-78
2022/01/03 10:21:44;;;;;;;1.00;0.68;;;;;;;24.07;26.37;97392.75;5056894;28;20477;-78
2022/01/03 10:24:13;;;;;;;2.03;0.65;;;;;;;24.39;25.42;97386.06;5063354;28;20036;-77
2022/01/03 10:26:40;;;;;;;0.73;0.50;;;;;;;24.85;24.99;97390.91;5061842;28;20082;-78
2022/01/03 10:29:27;;;;;;;1.23;0.77;;;;;;;24.70;24.60;97370.94;5073327;28;20499;-77
2022/01/03 10:31:55;;;;;;;1.33;0.60;;;;;;;23.30;27.42;97377.09;5065248;28;20058;-78
2022/01/03 10:34:25;;;;;;;0.77;0.60;;;;;;;23.49;27.22;97382.97;5063016;28;20126;-77
2022/01/03 10:36:53;;;;;;;2.42;0.65;;;;;;;24.29;26.43;97398.47;5061434;28;20436;-78
2022/01/03 10:39:21;;;;;;;1.58;1.08;;;;;;;23.51;27.47;97394.53;5067054;28;20066;-78
2022/01/03 10:41:50;;;;;;;1.50;0.63;;;;;;;22.97;28.75;97386.06;5062578;28;20261;-78
2022/01/03 10:44:37;;;;;;;0.98;0.70;;;;;;;23.54;27.81;97382.44;5067642;28;20077;-77
2022/01/03 10:47:05;;;;;;;1.42;0.90;;;;;;;24.48;26.29;97386.19;5062668;28;20020;-77
2022/01/03 10:49:32;;;;;;;0.65;0.55;;;;;;;24.35;26.21;97377.00;5059379;28;20070;-78
2022/01/03 10:52:39;;;;;;;1.40;0.50;;;;;;;24.93;25.21;97374.56;5064162;28;20028;-78
2022/01/03 10:55:14;;;;;;;2.05;0.60;;;;;;;24.36;26.36;97368.16;5038496;28;20051;-77
2022/01/03 10:57:59;;;;;;;2.53;0.73;;;;;;;23.96;26.03;97344.63;5066290;28;20504;-77
2022/01/03 11:00:25;;;;;;;0.77;0.63;;;;;;;23.32;27.38;97365.44;5058256;28;20148;-78
2022/01/03 11:03:28;;;;;;;0.90;0.73;;;;;;;22.95;28.13;97366.94;5067999;28;20068;-78
2022/01/03 11:06:01;;;;;;;2.67;0.65;;;;;;;23.12;28.23;97362.84;5061501;28;20037;-78
2022/01/03 11:11:31;;;;;;;1.70;0.68;;;;;;;23.64;27.61;97348.44;5064401;28;20039;-78
2022/01/03 11:13:57;;;;;;;1.35;0.75;;;;;;;24.17;26.55;97340.34;5066346;28;20037;-78
2022/01/03 11:16:35;;;;;;;1.20;0.70;;;;;;;24.10;26.33;97327.38;5065244;28;20033;-78
2022/01/03 11:19:01;;;;;;;1.35;0.50;;;;;;;24.78;26.24;97318.16;5065632;28;20037;-78
2022/01/03 11:21:30;;;;;;;1.00;0.60;;;;;;;24.11;25.50;97326.09;5061820;28;20044;-78
2022/01/03 11:24:14;;;;;;;1.60;0.70;;;;;;;22.96;27.63;97339.72;5069226;28;20098;-79
2022/01/03 11:26:47;;;;;;;2.50;0.82;;;;;;;22.64;28.90;97347.00;5068688;28;20862;-80
2022/01/03 11:29:15;;;;;;;1.70;0.60;;;;;;;21.97;30.46;97353.56;5068491;28;20028;-80
2022/01/03 11:31:41;;;;;;;1.50;0.77;;;;;;;21.75;31.49;97363.69;5070149;28;20036;-79
2022/01/03 11:34:09;;;;;;;0.80;0.60;;;;;;;20.79;32.66;97373.34;5069295;28;20060;-79
2022/01/03 11:36:37;;;;;;;2.20;0.70;;;;;;;20.41;32.35;97358.94;5071310;28;20037;-79
2022/01/03 11:39:08;;;;;;;2.30;0.70;;;;;;;20.83;31.90;97362.88;5067366;28;20074;-79
2022/01/03 11:41:37;;;;;;;1.17;0.60;;;;;;;21.22;30.88;97350.91;5069563;28;20554;-79
2022/01/03 11:44:04;;;;;;;0.90;0.60;;;;;;;21.64;29.84;97363.91;5069135;28;20033;-78
2022/01/03 11:46:30;;;;;;;1.05;0.63;;;;;;;20.95;30.34;97362.25;5061812;28;20504;-79
2022/01/03 11:48:57;;;;;;;0.70;0.57;;;;;;;21.72;29.31;97364.53;5062208;28;20052;-79
2022/01/03 11:51:28;;;;;;;1.80;0.57;;;;;;;21.64;28.87;97351.94;5063200;28;20446;-79
2022/01/03 11:53:54;;;;;;;0.93;0.63;;;;;;;21.10;29.23;97357.16;5072764;28;20024;-79
2022/01/03 11:56:22;;;;;;;1.55;0.65;;;;;;;21.04;29.51;97365.28;5067616;28;20111;-80